Angola, Kansas
Current Conditions -  °F | °C
As of 11:52 AM on Friday 24 Oct 2014 (Local Time) from KCFV Reporting Station
Clear Clear  
Wind Chill: 22°   Ceiling: Unl
Heat Index: 22°   Visibility: 10mi
Dew Point: 15°   Wind: 10mph
Humidity: 66%   Direction: 230°SW
Pressure: 30.09"   Gusts: NA
Location:  37.067°N, 95.5817°W
Report Text: KCFV 241652Z AUTO 23009KT 10SM CLR 22/15 A3009 RMK AO2 SLP186 T02170150
Loading
Personal Weather Stations






























Interactive Weather Map
Tropical Storm Tracking
New forecast layout! Learn more

10-Day Weather Forecast

Advertisements
Track Severe Weather on mobile